createdAt,value
2022-12-19T00:01:28.163Z,100858.69
2022-12-19T00:04:01.718Z,100870.75
2022-12-19T00:06:37.229Z,100879.19
2022-12-19T00:09:06.798Z,100877.22
2022-12-19T00:11:35.520Z,100884.66
2022-12-19T00:14:04.393Z,100904.75
2022-12-19T00:16:36.055Z,100905.84
2022-12-19T00:19:09.835Z,100901.69
2022-12-19T00:21:41.221Z,100908.75
2022-12-19T00:24:21.509Z,100909.88
2022-12-19T00:26:50.999Z,100912.59
2022-12-19T00:29:20.294Z,100908.09
2022-12-19T00:31:53.785Z,100912.00
2022-12-19T00:34:24.173Z,100922.03
2022-12-19T00:36:55.162Z,100920.66
2022-12-19T00:39:24.030Z,100920.34
2022-12-19T00:41:52.690Z,100925.19
2022-12-19T00:44:24.620Z,100931.41
2022-12-19T00:46:54.651Z,100942.66
2022-12-19T00:49:24.743Z,100933.03
2022-12-19T00:51:53.524Z,100938.66
2022-12-19T00:54:25.087Z,100935.44
2022-12-19T00:56:54.528Z,100950.69
2022-12-19T00:59:26.507Z,100955.22
2022-12-19T01:01:58.497Z,100968.09
2022-12-19T01:04:31.252Z,100952.81
2022-12-19T01:07:02.739Z,100960.81
2022-12-19T01:09:37.397Z,100972.38
2022-12-19T01:12:25.553Z,100977.13
2022-12-19T01:15:04.714Z,100979.06
2022-12-19T01:17:44.033Z,100975.31
2022-12-19T01:20:20.216Z,100983.78
2022-12-19T01:22:56.411Z,100973.81
2022-12-19T01:25:28.107Z,100975.53
2022-12-19T01:27:58.297Z,100977.50
2022-12-19T01:30:36.294Z,100971.38
2022-12-19T01:33:08.181Z,100969.59
2022-12-19T01:35:37.485Z,100970.22
2022-12-19T01:38:08.564Z,100975.41
2022-12-19T01:40:41.253Z,100989.19
2022-12-19T01:43:15.861Z,100995.75
2022-12-19T01:45:46.040Z,101007.59
2022-12-19T01:48:25.471Z,100994.16
2022-12-19T01:51:01.777Z,101002.19
2022-12-19T01:53:48.563Z,101011.50
2022-12-19T01:56:24.890Z,101005.66
2022-12-19T01:59:06.340Z,101015.59
2022-12-19T02:01:51.002Z,101017.53
2022-12-19T02:04:31.899Z,101023.78
2022-12-19T02:07:16.030Z,101030.59
2022-12-19T02:09:50.338Z,101043.13
2022-12-19T02:12:29.178Z,101046.41
2022-12-19T02:15:02.975Z,101050.09
2022-12-19T02:17:54.573Z,101057.88
2022-12-19T02:20:48.690Z,101061.56
2022-12-19T02:23:39.367Z,101061.13
2022-12-19T02:26:31.687Z,101062.09
2022-12-19T02:29:06.102Z,101073.09
2022-12-19T02:31:57.402Z,101076.88
2022-12-19T02:34:44.227Z,101072.03
2022-12-19T02:37:32.306Z,101076.16
2022-12-19T02:40:23.335Z,101078.88
2022-12-19T02:42:59.755Z,101086.78
2022-12-19T02:45:34.664Z,101099.84
2022-12-19T02:48:09.027Z,101102.66
2022-12-19T02:50:45.074Z,101115.63
2022-12-19T02:53:23.525Z,101115.88
2022-12-19T02:56:22.923Z,101106.03
2022-12-19T02:59:04.164Z,101103.75
2022-12-19T03:01:37.303Z,101106.88
2022-12-19T03:04:38.394Z,101122.13
2022-12-19T03:07:21.796Z,101126.75
2022-12-19T03:10:13.857Z,101124.16
2022-12-19T03:12:54.619Z,101126.47
2022-12-19T03:15:28.279Z,101133.41
2022-12-19T03:18:01.760Z,101134.94
2022-12-19T03:20:50.803Z,101137.75
2022-12-19T03:23:22.449Z,101133.88
2022-12-19T03:26:02.309Z,101136.22
2022-12-19T03:28:55.182Z,101146.81
2022-12-19T03:31:30.661Z,101146.38
2022-12-19T03:34:11.489Z,101147.03
2022-12-19T03:36:46.853Z,101154.69
2022-12-19T03:39:17.664Z,101159.16
2022-12-19T03:42:08.906Z,101156.50
2022-12-19T03:44:44.631Z,101156.94
2022-12-19T03:47:34.683Z,101160.88
2022-12-19T03:50:04.541Z,101160.56
2022-12-19T03:53:01.983Z,101178.53
2022-12-19T03:55:42.434Z,101175.59
2022-12-19T03:58:31.482Z,101173.72
2022-12-19T04:01:05.664Z,101174.91
2022-12-19T04:03:37.622Z,101178.31
2022-12-19T04:06:07.284Z,101195.31
2022-12-19T04:08:37.495Z,101191.66
2022-12-19T04:11:15.221Z,101200.66
2022-12-19T04:13:57.118Z,101204.59
2022-12-19T04:16:41.017Z,101198.53
2022-12-19T04:19:31.487Z,101201.56
2022-12-19T04:22:13.100Z,101206.59
2022-12-19T04:24:44.638Z,101198.31
2022-12-19T04:27:15.759Z,101197.88
2022-12-19T04:29:50.267Z,101199.34
2022-12-19T04:32:20.733Z,101211.03
2022-12-19T04:34:49.410Z,101224.19
2022-12-19T04:37:26.350Z,101225.28
2022-12-19T04:39:57.464Z,101228.41
2022-12-19T04:42:29.195Z,101223.25
2022-12-19T04:45:00.486Z,101224.16
2022-12-19T04:47:29.347Z,101228.81
2022-12-19T04:50:08.149Z,101229.66
2022-12-19T04:52:36.881Z,101239.88
2022-12-19T04:55:08.484Z,101244.00
2022-12-19T04:57:42.305Z,101238.75
2022-12-19T05:00:11.910Z,101245.19
2022-12-19T05:02:46.861Z,101241.75
2022-12-19T05:05:15.796Z,101252.88
2022-12-19T05:07:44.482Z,101249.66
2022-12-19T05:10:16.138Z,101256.31
2022-12-19T05:12:47.908Z,101255.72
2022-12-19T05:15:20.090Z,101267.53
2022-12-19T05:17:48.793Z,101269.34
2022-12-19T05:20:17.519Z,101262.78
2022-12-19T05:22:46.259Z,101260.94
2022-12-19T05:25:36.343Z,101262.41
2022-12-19T05:28:08.356Z,101278.84
2022-12-19T05:30:40.517Z,101283.09
2022-12-19T05:33:09.546Z,101281.69
2022-12-19T05:35:38.877Z,101301.38
2022-12-19T05:38:10.796Z,101300.38
2022-12-19T05:40:45.159Z,101302.47
2022-12-19T05:43:16.873Z,101299.56
2022-12-19T05:45:45.777Z,101304.81
2022-12-19T05:48:19.525Z,101320.00
2022-12-19T05:50:53.032Z,101318.97
2022-12-19T05:53:28.445Z,101337.75
2022-12-19T05:56:11.792Z,101338.47
2022-12-19T05:58:42.598Z,101324.34
2022-12-19T06:01:21.561Z,101313.50
2022-12-19T06:03:51.553Z,101330.88
2022-12-19T06:06:25.248Z,101343.63
2022-12-19T06:09:10.351Z,101350.72
2022-12-19T06:11:43.755Z,101351.50
2022-12-19T06:14:21.134Z,101358.59
2022-12-19T06:16:52.246Z,101353.13
2022-12-19T06:19:21.075Z,101370.72
2022-12-19T06:21:49.679Z,101359.69
2022-12-19T06:24:22.142Z,101356.59
2022-12-19T06:27:26.442Z,101362.22
2022-12-19T06:29:55.363Z,101369.69
2022-12-19T06:32:24.239Z,101374.94
2022-12-19T06:35:04.165Z,101373.94
2022-12-19T06:37:34.305Z,101381.22
2022-12-19T06:40:07.814Z,101385.50
2022-12-19T06:42:37.582Z,101387.28
2022-12-19T06:45:06.880Z,101386.09
2022-12-19T06:47:35.833Z,101394.78
2022-12-19T06:50:04.899Z,101401.00
2022-12-19T06:52:35.525Z,101412.97
2022-12-19T06:55:04.775Z,101416.63
2022-12-19T06:57:33.457Z,101409.75
2022-12-19T07:00:04.432Z,101412.66
2022-12-19T07:02:33.864Z,101429.16
2022-12-19T07:05:06.359Z,101437.84
2022-12-19T07:07:36.285Z,101444.41
2022-12-19T07:10:12.909Z,101449.06
2022-12-19T07:12:43.982Z,101451.78
2022-12-19T07:15:13.039Z,101461.09
2022-12-19T07:17:47.588Z,101468.38
2022-12-19T07:20:25.485Z,101465.34
2022-12-19T07:22:55.020Z,101482.50
2022-12-19T07:25:23.865Z,101473.44
2022-12-19T07:27:53.635Z,101471.44
2022-12-19T07:30:32.655Z,101473.63
2022-12-19T07:33:01.324Z,101471.53
2022-12-19T07:35:30.854Z,101471.50
2022-12-19T07:38:07.479Z,101477.84
2022-12-19T07:40:37.026Z,101489.94
2022-12-19T07:43:10.336Z,101486.19
2022-12-19T07:45:39.927Z,101495.44
2022-12-19T07:48:13.867Z,101493.88
2022-12-19T07:50:57.195Z,101498.63
2022-12-19T07:53:26.247Z,101508.13
2022-12-19T07:55:55.161Z,101513.75
2022-12-19T07:58:23.817Z,101501.72
2022-12-19T08:00:59.917Z,101502.72
2022-12-19T08:03:33.438Z,101517.19
2022-12-19T08:06:07.385Z,101518.91
2022-12-19T08:08:38.323Z,101512.63
2022-12-19T08:11:17.482Z,101513.66
2022-12-19T08:13:51.500Z,101513.66
2022-12-19T08:16:21.328Z,101518.69
2022-12-19T08:18:50.404Z,101520.72
2022-12-19T08:21:21.779Z,101523.56
2022-12-19T08:23:50.809Z,101535.25
2022-12-19T08:26:27.761Z,101536.31
2022-12-19T08:29:01.911Z,101542.72
2022-12-19T08:31:30.648Z,101542.66
2022-12-19T08:34:01.505Z,101548.47
2022-12-19T08:36:33.514Z,101554.25
2022-12-19T08:39:02.243Z,101553.53
2022-12-19T08:41:33.799Z,101546.22
2022-12-19T08:44:02.865Z,101550.41
2022-12-19T08:46:33.612Z,101546.34
2022-12-19T08:49:02.416Z,101539.19
2022-12-19T08:51:33.665Z,101545.34
2022-12-19T08:54:03.780Z,101541.19
2022-12-19T08:56:41.909Z,101541.72
2022-12-19T08:59:25.649Z,101543.50
2022-12-19T09:02:03.376Z,101549.25
2022-12-19T09:06:01.676Z,101546.22
2022-12-19T09:07:27.391Z,101545.56
2022-12-19T09:09:56.172Z,101551.16
2022-12-19T09:12:24.965Z,101555.22
2022-12-19T09:14:56.641Z,101562.88
2022-12-19T09:17:31.624Z,101566.63
2022-12-19T09:20:00.591Z,101566.13
2022-12-19T09:22:37.722Z,101565.75
2022-12-19T09:25:06.976Z,101552.72
2022-12-19T09:28:09.322Z,101560.00
2022-12-19T09:30:28.006Z,101561.13
2022-12-19T09:33:00.273Z,101569.31
2022-12-19T09:35:30.687Z,101591.28
2022-12-19T09:38:00.493Z,101597.59
2022-12-19T09:40:43.046Z,101587.88
2022-12-19T09:43:29.976Z,101592.66
2022-12-19T09:46:21.258Z,101595.94
2022-12-19T09:49:00.709Z,101611.03
2022-12-19T09:51:39.285Z,101615.91
2022-12-19T09:54:17.311Z,101617.66
2022-12-19T09:56:48.314Z,101617.38
2022-12-19T09:59:41.333Z,101620.34
2022-12-19T10:02:51.408Z,101631.81
2022-12-19T10:05:44.245Z,101639.88
2022-12-19T10:08:23.065Z,101653.50
2022-12-19T10:12:38.936Z,101656.38
2022-12-19T10:14:25.859Z,101651.19
2022-12-19T10:17:25.621Z,101653.63
2022-12-19T10:20:40.848Z,101661.00
2022-12-19T10:23:37.903Z,101663.06
2022-12-19T10:26:21.739Z,101655.41
2022-12-19T10:29:12.829Z,101672.56
2022-12-19T10:31:53.949Z,101670.16
2022-12-19T10:34:25.652Z,101672.06
2022-12-19T10:37:25.571Z,101680.88
2022-12-19T10:40:13.216Z,101685.41
2022-12-19T10:43:32.868Z,101707.09
2022-12-19T10:46:14.783Z,101694.72
2022-12-19T10:48:44.939Z,101701.16
2022-12-19T10:51:29.395Z,101697.06
2022-12-19T10:54:03.289Z,101696.06
2022-12-19T10:56:38.222Z,101692.47
2022-12-19T10:59:21.418Z,101701.28
2022-12-19T11:02:00.370Z,101718.75
2022-12-19T11:04:36.794Z,101706.72
2022-12-19T11:07:19.005Z,101710.00
2022-12-19T11:10:05.657Z,101704.44
2022-12-19T11:15:40.995Z,101717.53
2022-12-19T11:20:27.406Z,101705.31
2022-12-19T11:27:35.091Z,101724.44
2022-12-19T11:27:44.661Z,101723.66
2022-12-19T11:29:24.950Z,101726.31
2022-12-19T11:29:44.967Z,101728.25
2022-12-19T11:31:48.389Z,101718.81
2022-12-19T11:33:27.699Z,101715.69
2022-12-19T11:36:01.243Z,101729.59
2022-12-19T11:38:49.298Z,101730.53
2022-12-19T11:41:35.185Z,101725.19
2022-12-19T11:44:28.144Z,101724.75
2022-12-19T11:47:06.658Z,101729.31
2022-12-19T11:49:41.645Z,101731.81
2022-12-19T11:55:35.714Z,101730.75
2022-12-19T11:58:12.495Z,101732.38
2022-12-19T12:00:45.734Z,101732.72
2022-12-19T12:03:30.241Z,101735.81
2022-12-19T12:06:07.562Z,101743.84
2022-12-19T12:11:42.603Z,101742.47
2022-12-19T12:21:32.402Z,101746.06
2022-12-19T12:24:58.607Z,101758.38
2022-12-19T12:31:16.046Z,101758.97
2022-12-19T12:31:27.901Z,101761.31
2022-12-19T12:31:50.785Z,101767.97
2022-12-19T12:32:00.733Z,101761.94
2022-12-19T12:35:56.309Z,101758.75
2022-12-19T12:38:44.243Z,101797.03
2022-12-19T12:41:46.155Z,101790.38
2022-12-19T12:44:18.345Z,101783.72
2022-12-19T12:47:18.340Z,101783.06
2022-12-19T12:49:55.793Z,101778.69
2022-12-19T12:52:44.605Z,101779.31
2022-12-19T12:55:27.686Z,101775.16
2022-12-19T12:57:59.097Z,101770.47
2022-12-19T13:00:31.695Z,101775.63
2022-12-19T13:03:06.812Z,101782.13
2022-12-19T13:05:47.581Z,101789.00
2022-12-19T13:08:45.231Z,101790.22
2022-12-19T13:11:37.884Z,101796.78
2022-12-19T13:14:35.389Z,101794.50
2022-12-19T13:17:19.969Z,101794.16
2022-12-19T13:19:57.931Z,101783.97
2022-12-19T13:22:37.995Z,101793.97
2022-12-19T13:25:48.224Z,101792.38
2022-12-19T13:28:40.988Z,101784.78
2022-12-19T13:31:20.586Z,101781.69
2022-12-19T13:33:56.314Z,101778.00
2022-12-19T13:39:49.939Z,101784.88
2022-12-19T13:40:08.944Z,101792.00
2022-12-19T13:43:13.583Z,101794.44
2022-12-19T13:45:51.030Z,101789.09
2022-12-19T13:48:29.438Z,101783.34
2022-12-19T13:51:01.316Z,101780.94
2022-12-19T13:53:30.664Z,101776.66
2022-12-19T13:56:06.541Z,101784.16
2022-12-19T13:58:50.266Z,101783.06
2022-12-19T14:01:34.251Z,101785.75
2022-12-19T14:04:11.444Z,101791.03
2022-12-19T14:06:56.615Z,101796.84
2022-12-19T14:11:27.744Z,101792.03
2022-12-19T14:13:47.496Z,101785.59
2022-12-19T14:15:52.889Z,101779.31
2022-12-19T14:18:45.379Z,101786.66
2022-12-19T14:22:06.316Z,101788.28
2022-12-19T14:24:18.930Z,101777.97
2022-12-19T14:28:26.197Z,101780.00
2022-12-19T14:30:26.064Z,101772.34
2022-12-19T14:33:44.324Z,101776.84
2022-12-19T14:36:06.443Z,101770.66
2022-12-19T14:39:23.113Z,101776.63
2022-12-19T14:41:47.752Z,101782.44
2022-12-19T14:51:42.942Z,101773.03
2022-12-19T14:54:09.339Z,101780.41
2022-12-19T14:54:13.813Z,101771.28
2022-12-19T14:54:34.717Z,101775.53
2022-12-19T14:56:47.374Z,101783.41
2022-12-19T14:59:31.536Z,101780.28
2022-12-19T15:02:28.135Z,101782.50
2022-12-19T15:05:09.129Z,101790.91
2022-12-19T15:07:45.127Z,101795.56
2022-12-19T15:11:07.922Z,101793.41
2022-12-19T15:14:51.087Z,101799.91
2022-12-19T15:16:32.617Z,101801.94
2022-12-19T15:19:03.197Z,101800.47
2022-12-19T15:21:32.656Z,101800.28
2022-12-19T15:24:04.254Z,101801.13
2022-12-19T15:26:47.066Z,101819.44
2022-12-19T15:29:22.163Z,101817.63
2022-12-19T15:31:51.261Z,101823.81
2022-12-19T15:34:35.769Z,101818.44
2022-12-19T15:37:05.870Z,101820.44
2022-12-19T15:39:34.781Z,101825.28
2022-12-19T15:42:13.169Z,101827.88
2022-12-19T15:44:43.833Z,101835.44
2022-12-19T15:47:22.842Z,101837.88
2022-12-19T15:49:51.651Z,101841.34
2022-12-19T15:52:31.361Z,101838.16
2022-12-19T15:54:59.741Z,101848.91
2022-12-19T15:57:44.225Z,101847.00
2022-12-19T16:00:24.076Z,101856.03
2022-12-19T16:05:47.387Z,101854.63
2022-12-19T16:08:28.889Z,101863.69
2022-12-19T16:11:01.746Z,101858.59
2022-12-19T16:13:35.894Z,101855.22
2022-12-19T16:16:15.113Z,101863.06
2022-12-19T16:18:46.612Z,101856.28
2022-12-19T16:21:33.760Z,101856.19
2022-12-19T16:24:05.167Z,101858.84
2022-12-19T16:26:40.997Z,101859.53
2022-12-19T16:29:24.663Z,101873.69
2022-12-19T16:32:06.134Z,101872.66
2022-12-19T16:34:35.506Z,101870.50
2022-12-19T16:37:11.248Z,101875.91
2022-12-19T16:39:41.131Z,101881.19
2022-12-19T16:42:17.589Z,101876.41
2022-12-19T16:44:48.055Z,101877.25
2022-12-19T16:47:23.229Z,101872.66
2022-12-19T16:49:51.958Z,101877.19
2022-12-19T16:52:23.432Z,101881.34
2022-12-19T16:54:53.912Z,101877.50
2022-12-19T16:57:25.412Z,101888.28
2022-12-19T17:00:01.548Z,101892.09
2022-12-19T17:02:40.427Z,101890.03
2022-12-19T17:05:16.979Z,101899.91
2022-12-19T17:07:51.413Z,101904.38
2022-12-19T17:10:26.113Z,101894.69
2022-12-19T17:12:56.727Z,101891.72
2022-12-19T17:15:31.747Z,101897.25
2022-12-19T17:18:07.479Z,101906.59
2022-12-19T17:20:40.557Z,101907.66
2022-12-19T17:23:23.897Z,101912.88
2022-12-19T17:25:55.724Z,101911.22
2022-12-19T17:28:24.546Z,101924.94
2022-12-19T17:30:58.811Z,101917.97
2022-12-19T17:33:37.415Z,101925.59
2022-12-19T17:36:11.986Z,101933.09
2022-12-19T17:38:40.694Z,101931.34
2022-12-19T17:41:19.716Z,101940.78
2022-12-19T17:43:51.464Z,101938.22
2022-12-19T17:46:22.616Z,101946.69
2022-12-19T17:48:53.796Z,101945.25
2022-12-19T17:51:25.212Z,101954.41
2022-12-19T17:53:56.893Z,101955.72
2022-12-19T17:56:25.794Z,101954.09
2022-12-19T17:58:59.295Z,101957.75
2022-12-19T18:01:31.334Z,101955.66
2022-12-19T18:04:02.818Z,101950.88
2022-12-19T18:06:31.552Z,101952.66
2022-12-19T18:09:04.922Z,101953.69
2022-12-19T18:11:41.664Z,101956.41
2022-12-19T18:14:12.060Z,101963.94
2022-12-19T18:16:42.088Z,101974.56
2022-12-19T18:19:22.807Z,101980.31
2022-12-19T18:21:51.889Z,101973.97
2022-12-19T18:24:20.694Z,101979.88
2022-12-19T18:26:51.417Z,101978.50
2022-12-19T18:29:20.160Z,101969.22
2022-12-19T18:31:51.627Z,101973.00
2022-12-19T18:34:24.155Z,101966.13
2022-12-19T18:36:54.155Z,101960.91
2022-12-19T18:39:38.241Z,101961.28
2022-12-19T18:42:20.702Z,101962.53
2022-12-19T18:44:55.243Z,101960.00
2022-12-19T18:47:26.372Z,101970.31
2022-12-19T18:49:55.093Z,101964.34
2022-12-19T18:52:23.737Z,101968.22
2022-12-19T18:54:52.627Z,101964.75
2022-12-19T18:57:21.292Z,101958.34
2022-12-19T18:59:52.382Z,101952.66
2022-12-19T19:02:28.629Z,101950.88
2022-12-19T19:04:57.820Z,101939.72
2022-12-19T19:07:28.750Z,101942.69
2022-12-19T19:10:00.185Z,101942.34
2022-12-19T19:12:41.267Z,101944.13
2022-12-19T19:15:12.918Z,101943.06
2022-12-19T19:17:44.959Z,101948.69
2022-12-19T19:20:15.322Z,101950.19
2022-12-19T19:22:44.245Z,101945.34
2022-12-19T19:25:14.966Z,101947.28
2022-12-19T19:27:43.888Z,101938.88
2022-12-19T19:30:13.371Z,101938.38
2022-12-19T19:32:49.312Z,101933.84
2022-12-19T19:35:21.266Z,101927.59
2022-12-19T19:37:56.334Z,101926.16
2022-12-19T19:40:25.032Z,101929.88
2022-12-19T19:42:56.823Z,101930.19
2022-12-19T19:45:28.619Z,101938.34
2022-12-19T19:47:57.825Z,101933.91
2022-12-19T19:50:33.710Z,101934.69
2022-12-19T19:53:05.679Z,101940.88
2022-12-19T19:55:34.473Z,101934.13
2022-12-19T19:58:07.540Z,101944.78
2022-12-19T20:00:36.290Z,101946.00
2022-12-19T20:03:08.495Z,101931.59
2022-12-19T20:05:39.146Z,101934.03
2022-12-19T20:08:13.537Z,101936.81
2022-12-19T20:10:44.041Z,101931.38
2022-12-19T20:13:24.201Z,101927.00
2022-12-19T20:16:02.052Z,101922.50
2022-12-19T20:18:31.083Z,101921.25
2022-12-19T20:20:59.855Z,101922.88
2022-12-19T20:23:34.006Z,101923.75
2022-12-19T20:26:04.214Z,101911.63
2022-12-19T20:28:37.169Z,101914.81
2022-12-19T20:31:09.772Z,101918.97
2022-12-19T20:33:42.928Z,101920.97
2022-12-19T20:36:13.494Z,101922.28
2022-12-19T20:38:42.798Z,101937.50
2022-12-19T20:41:11.670Z,101937.84
2022-12-19T20:43:40.577Z,101947.72
2022-12-19T20:46:20.759Z,101943.66
2022-12-19T20:49:06.511Z,101947.09
2022-12-19T20:51:41.725Z,101944.34
2022-12-19T20:54:13.218Z,101945.16
2022-12-19T20:56:42.638Z,101944.00
2022-12-19T20:59:14.317Z,101943.31
2022-12-19T21:01:43.208Z,101929.13
2022-12-19T21:04:12.234Z,101932.03
2022-12-19T21:06:44.041Z,101938.31
2022-12-19T21:09:15.885Z,101941.56
2022-12-19T21:11:44.577Z,101945.78
2022-12-19T21:14:16.164Z,101943.84
2022-12-19T21:16:45.416Z,101947.19
2022-12-19T21:19:16.718Z,101942.94
2022-12-19T21:21:48.028Z,101940.63
2022-12-19T21:24:16.746Z,101934.44
2022-12-19T21:26:57.706Z,101939.81
2022-12-19T21:29:32.247Z,101932.50
2022-12-19T21:32:01.137Z,101930.50
2022-12-19T21:34:30.093Z,101929.59
2022-12-19T21:36:58.910Z,101934.63
2022-12-19T21:39:28.016Z,101937.81
2022-12-19T21:41:56.677Z,101929.63
2022-12-19T21:44:28.089Z,101931.22
2022-12-19T21:46:57.010Z,101928.63
2022-12-19T21:49:28.623Z,101930.34
2022-12-19T21:51:57.585Z,101931.34
2022-12-19T21:54:32.085Z,101921.44
2022-12-19T21:57:03.886Z,101920.41
2022-12-19T21:59:32.649Z,101914.94
2022-12-19T22:02:03.161Z,101919.50
2022-12-19T22:04:36.317Z,101917.59
2022-12-19T22:07:12.224Z,101916.09
2022-12-19T22:09:41.017Z,101904.97
2022-12-19T22:12:15.843Z,101909.16
2022-12-19T22:14:45.831Z,101908.63
2022-12-19T22:17:16.247Z,101904.41
2022-12-19T22:19:45.660Z,101920.94
2022-12-19T22:22:14.374Z,101918.09
2022-12-19T22:24:43.233Z,101912.63
2022-12-19T22:27:15.056Z,101902.06
2022-12-19T22:29:43.934Z,101904.84
2022-12-19T22:32:12.545Z,101898.81
2022-12-19T22:34:41.475Z,101895.19
2022-12-19T22:37:11.979Z,101899.19
2022-12-19T22:39:44.832Z,101898.38
2022-12-19T22:42:13.513Z,101905.53
2022-12-19T22:44:45.185Z,101909.72
2022-12-19T22:47:13.902Z,101905.41
2022-12-19T22:49:44.123Z,101904.50
2022-12-19T22:52:15.075Z,101908.41
2022-12-19T22:54:45.993Z,101898.09
2022-12-19T22:57:17.236Z,101902.53
2022-12-19T22:59:45.914Z,101907.75
2022-12-19T23:02:14.783Z,101905.38
2022-12-19T23:04:43.780Z,101901.00
2022-12-19T23:07:14.660Z,101902.06
2022-12-19T23:09:46.294Z,101907.69
2022-12-19T23:12:17.306Z,101901.47
2022-12-19T23:14:46.017Z,101911.72
2022-12-19T23:17:14.645Z,101910.84
2022-12-19T23:19:43.468Z,101911.34
2022-12-19T23:22:12.147Z,101922.41
2022-12-19T23:24:41.766Z,101921.59
2022-12-19T23:27:10.424Z,101921.91
2022-12-19T23:29:40.786Z,101927.75
2022-12-19T23:32:11.707Z,101916.69
2022-12-19T23:34:43.415Z,101923.94
2022-12-19T23:37:12.765Z,101932.84
2022-12-19T23:39:42.122Z,101925.63
2022-12-19T23:42:10.793Z,101922.03
2022-12-19T23:44:42.496Z,101921.22
2022-12-19T23:47:13.378Z,101914.75
2022-12-19T23:49:43.208Z,101913.97
2022-12-19T23:52:12.089Z,101926.91
2022-12-19T23:54:46.385Z,101926.47
2022-12-19T23:57:16.205Z,101922.59
2022-12-19T23:59:49.431Z,101921.53
